Portada
METAR-TAF:

METAR-TAF

Aeroports :

Agartala, Índia

latitud: 23-53-24N, longitud: 91-14-32E, altitud: 14 m

Observació

L'informe es va fer fa 2 hores i 31 minuts, a les 12:00 UTC
Vent 3 kt del Sud/Sud-Est
Temperatura 27°C
Humitat 89%
Pressió 1003 hPa
Visibilitat: 4000 m
Escasses núvols a una alçada de 800 ft
Núvols disperses a una alçada de 1800 ft
Cel ennuvolat a una alçada de 10000 ft
boirina

METAR: VEAT 181200Z 15003KT 4000 BR FEW008 SCT018 BKN100 27/25 Q1003 NOSIG

Hora: 20:01 (14:31 UTC)

Pronòstic

L'informe es va fer fa 3 hores i 31 minuts, a les 11:00 UTC
Pronòstic vàlid del 18 a les 12 UTC al 18 a les 21 UTC
Vent 3 kt del Sud-Est
Visibilitat: 3000 m
Núvols disperses a una alçada de 1800 ft
Escasses núvols a una alçada de 3000 ft, Cumulonimbus.
Cel ennuvolat a una alçada de 10000 ft
boirina
Temporalment
l' 18 a les 13 UTC al 18 a les 16 UTC
Visibilitat: 2000 m
tempesta, pluja

TAF: VEAT 181100Z 1812/1821 13003KT 3000 BR SCT018 FEW030CB BKN100 TEMPO 1813/1816 2000 -TSRA

Observacions i pronòstics meteorològics de més de 4000 aeroports (METAR i TAF).

Les estacions disponibles són els punts grocs i vermells al mapa.

Posi el ratolí al punt desitjat per veure el nom de l'estació.

Feu clic per veure les observacions i els pronòstics meteorològics.

Per canviar el mapa: feu clic els botons verds amb una creu de color negre per apropar; al botó verd amb un guió per allunyar la imatge; o en les fletxes verdes per a mapes adjacents.


METAR-TAF: